sensor_id;sensor_type;location;lat;lon;timestamp;temperature;humidity
20858;DHT22;10589;53.636;10.012;2022-08-03T03:46:33;17.10;99.90
20858;DHT22;10589;53.636;10.012;2022-08-03T03:48:59;17.10;99.90
20858;DHT22;10589;53.636;10.012;2022-08-03T03:51:25;17.20;99.90
20858;DHT22;10589;53.636;10.012;2022-08-03T03:53:57;17.10;99.90
20858;DHT22;10589;53.636;10.012;2022-08-03T03:56:24;17.20;99.90
20858;DHT22;10589;53.636;10.012;2022-08-03T03:58:50;17.20;99.90
20858;DHT22;10589;53.636;10.012;2022-08-03T04:01:16;17.20;99.90
20858;DHT22;10589;53.636;10.012;2022-08-03T04:03:41;17.20;99.90
20858;DHT22;10589;53.636;10.012;2022-08-03T04:06:07;17.20;99.90
20858;DHT22;10589;53.636;10.012;2022-08-03T04:08:52;17.20;99.90
20858;DHT22;10589;53.636;10.012;2022-08-03T04:11:39;17.20;99.90
20858;DHT22;10589;53.636;10.012;2022-08-03T04:14:10;17.30;99.90
20858;DHT22;10589;53.636;10.012;2022-08-03T04:16:43;17.30;99.90
20858;DHT22;10589;53.636;10.012;2022-08-03T04:19:22;17.30;99.90
20858;DHT22;10589;53.636;10.012;2022-08-03T04:21:50;17.40;99.90
20858;DHT22;10589;53.636;10.012;2022-08-03T04:24:19;17.40;99.90
20858;DHT22;10589;53.636;10.012;2022-08-03T04:26:46;17.40;99.90
20858;DHT22;10589;53.636;10.012;2022-08-03T04:29:13;17.50;99.90
20858;DHT22;10589;53.636;10.012;2022-08-03T04:31:41;17.50;99.90
20858;DHT22;10589;53.636;10.012;2022-08-03T04:34:07;17.60;99.90
20858;DHT22;10589;53.636;10.012;2022-08-03T04:36:46;17.60;99.90
20858;DHT22;10589;53.636;10.012;2022-08-03T04:39:17;17.70;99.90
20858;DHT22;10589;53.636;10.012;2022-08-03T04:41:44;17.70;99.90
20858;DHT22;10589;53.636;10.012;2022-08-03T04:44:12;17.80;99.90
20858;DHT22;10589;53.636;10.012;2022-08-03T04:46:39;17.80;99.90
20858;DHT22;10589;53.636;10.012;2022-08-03T04:49:05;17.90;99.90
20858;DHT22;10589;53.636;10.012;2022-08-03T04:51:32;17.90;99.90
20858;DHT22;10589;53.636;10.012;2022-08-03T04:53:59;18.00;99.90
20858;DHT22;10589;53.636;10.012;2022-08-03T04:56:25;18.00;99.90
20858;DHT22;10589;53.636;10.012;2022-08-03T04:58:51;18.10;99.90
20858;DHT22;10589;53.636;10.012;2022-08-03T05:01:17;18.10;99.90
20858;DHT22;10589;53.636;10.012;2022-08-03T05:03:45;18.20;99.90
20858;DHT22;10589;53.636;10.012;2022-08-03T05:06:10;18.30;99.90
20858;DHT22;10589;53.636;10.012;2022-08-03T05:08:36;18.40;99.90
20858;DHT22;10589;53.636;10.012;2022-08-03T05:11:02;18.40;99.90
20858;DHT22;10589;53.636;10.012;2022-08-03T05:13:28;18.50;99.90
20858;DHT22;10589;53.636;10.012;2022-08-03T05:15:53;18.60;99.90
20858;DHT22;10589;53.636;10.012;2022-08-03T05:18:19;18.70;99.90
20858;DHT22;10589;53.636;10.012;2022-08-03T05:20:45;18.80;99.90
20858;DHT22;10589;53.636;10.012;2022-08-03T05:23:10;18.90;99.90
20858;DHT22;10589;53.636;10.012;2022-08-03T05:25:36;19.00;99.90
20858;DHT22;10589;53.636;10.012;2022-08-03T05:28:02;19.00;99.90
20858;DHT22;10589;53.636;10.012;2022-08-03T05:30:27;19.20;99.90
20858;DHT22;10589;53.636;10.012;2022-08-03T05:32:53;19.30;99.90
20858;DHT22;10589;53.636;10.012;2022-08-03T05:35:19;19.40;99.90
20858;DHT22;10589;53.636;10.012;2022-08-03T05:37:44;19.60;99.90
20858;DHT22;10589;53.636;10.012;2022-08-03T05:40:11;19.70;99.90
20858;DHT22;10589;53.636;10.012;2022-08-03T05:42:36;19.80;99.90
20858;DHT22;10589;53.636;10.012;2022-08-03T05:45:06;19.90;99.90
20858;DHT22;10589;53.636;10.012;2022-08-03T05:47:43;20.00;99.90
20858;DHT22;10589;53.636;10.012;2022-08-03T05:50:13;20.20;99.90
20858;DHT22;10589;53.636;10.012;2022-08-03T05:52:40;20.30;99.90
20858;DHT22;10589;53.636;10.012;2022-08-03T05:55:07;20.30;99.90
20858;DHT22;10589;53.636;10.012;2022-08-03T05:57:34;20.40;99.90
20858;DHT22;10589;53.636;10.012;2022-08-03T06:00:02;20.50;99.90
20858;DHT22;10589;53.636;10.012;2022-08-03T06:02:28;20.50;99.90
20858;DHT22;10589;53.636;10.012;2022-08-03T06:04:54;20.60;99.90
20858;DHT22;10589;53.636;10.012;2022-08-03T06:07:19;20.70;99.90
20858;DHT22;10589;53.636;10.012;2022-08-03T06:09:46;20.80;99.90
20858;DHT22;10589;53.636;10.012;2022-08-03T06:12:12;20.90;99.90
20858;DHT22;10589;53.636;10.012;2022-08-03T06:14:38;21.10;99.90
20858;DHT22;10589;53.636;10.012;2022-08-03T06:17:03;21.30;99.90
20858;DHT22;10589;53.636;10.012;2022-08-03T06:19:29;21.40;99.90
20858;DHT22;10589;53.636;10.012;2022-08-03T06:21:54;21.50;99.90
20858;DHT22;10589;53.636;10.012;2022-08-03T06:24:20;21.60;99.90
20858;DHT22;10589;53.636;10.012;2022-08-03T06:26:46;21.70;99.90
20858;DHT22;10589;53.636;10.012;2022-08-03T06:29:11;21.70;99.90
20858;DHT22;10589;53.636;10.012;2022-08-03T06:31:37;21.90;99.90
20858;DHT22;10589;53.636;10.012;2022-08-03T06:34:03;22.00;99.90
20858;DHT22;10589;53.636;10.012;2022-08-03T06:36:30;22.20;99.90
20858;DHT22;10589;53.636;10.012;2022-08-03T06:38:57;22.20;99.90
20858;DHT22;10589;53.636;10.012;2022-08-03T06:41:23;22.30;99.90
20858;DHT22;10589;53.636;10.012;2022-08-03T06:43:49;22.50;99.90
20858;DHT22;10589;53.636;10.012;2022-08-03T06:46:14;22.50;99.90
20858;DHT22;10589;53.636;10.012;2022-08-03T06:48:40;22.60;99.90
20858;DHT22;10589;53.636;10.012;2022-08-03T06:51:06;22.70;99.90
20858;DHT22;10589;53.636;10.012;2022-08-03T06:53:33;22.80;99.90
20858;DHT22;10589;53.636;10.012;2022-08-03T06:55:58;22.90;99.90
20858;DHT22;10589;53.636;10.012;2022-08-03T06:58:24;23.00;99.90
20858;DHT22;10589;53.636;10.012;2022-08-03T07:00:50;23.10;99.90
20858;DHT22;10589;53.636;10.012;2022-08-03T07:03:16;23.20;99.90
20858;DHT22;10589;53.636;10.012;2022-08-03T07:05:42;23.40;99.90
20858;DHT22;10589;53.636;10.012;2022-08-03T07:08:08;23.50;99.90
20858;DHT22;10589;53.636;10.012;2022-08-03T07:10:34;23.60;99.90
20858;DHT22;10589;53.636;10.012;2022-08-03T07:13:00;23.80;99.90
20858;DHT22;10589;53.636;10.012;2022-08-03T07:15:26;24.10;99.90
20858;DHT22;10589;53.636;10.012;2022-08-03T07:17:51;24.20;99.90
20858;DHT22;10589;53.636;10.012;2022-08-03T07:20:17;24.40;99.90
20858;DHT22;10589;53.636;10.012;2022-08-03T07:22:43;24.70;99.90
20858;DHT22;10589;53.636;10.012;2022-08-03T07:25:09;24.80;99.90
20858;DHT22;10589;53.636;10.012;2022-08-03T07:27:35;25.00;99.90
20858;DHT22;10589;53.636;10.012;2022-08-03T07:30:04;25.10;99.90
20858;DHT22;10589;53.636;10.012;2022-08-03T07:32:30;25.10;99.90
20858;DHT22;10589;53.636;10.012;2022-08-03T07:34:56;25.20;99.90
20858;DHT22;10589;53.636;10.012;2022-08-03T07:37:21;25.40;99.90
20858;DHT22;10589;53.636;10.012;2022-08-03T07:39:47;25.50;99.90
20858;DHT22;10589;53.636;10.012;2022-08-03T07:42:13;25.60;99.90
20858;DHT22;10589;53.636;10.012;2022-08-03T07:44:38;25.70;99.90
20858;DHT22;10589;53.636;10.012;2022-08-03T07:47:04;25.90;99.90
20858;DHT22;10589;53.636;10.012;2022-08-03T07:49:30;26.10;99.90
20858;DHT22;10589;53.636;10.012;2022-08-03T07:51:56;26.20;99.90
20858;DHT22;10589;53.636;10.012;2022-08-03T07:54:40;26.20;99.90
20858;DHT22;10589;53.636;10.012;2022-08-03T07:57:06;26.40;99.90
20858;DHT22;10589;53.636;10.012;2022-08-03T07:59:31;26.40;99.90
20858;DHT22;10589;53.636;10.012;2022-08-03T08:01:59;26.50;99.90
20858;DHT22;10589;53.636;10.012;2022-08-03T08:04:25;26.50;99.90
20858;DHT22;10589;53.636;10.012;2022-08-03T08:06:50;26.40;99.90
20858;DHT22;10589;53.636;10.012;2022-08-03T08:09:16;26.50;99.90
20858;DHT22;10589;53.636;10.012;2022-08-03T08:11:42;26.70;99.90
20858;DHT22;10589;53.636;10.012;2022-08-03T08:14:07;26.80;99.90
20858;DHT22;10589;53.636;10.012;2022-08-03T08:16:34;26.80;99.90
20858;DHT22;10589;53.636;10.012;2022-08-03T08:18:59;26.90;99.90
20858;DHT22;10589;53.636;10.012;2022-08-03T08:21:26;27.00;99.90
20858;DHT22;10589;53.636;10.012;2022-08-03T08:23:52;27.00;99.90
20858;DHT22;10589;53.636;10.012;2022-08-03T08:26:17;27.10;99.90
20858;DHT22;10589;53.636;10.012;2022-08-03T08:28:43;27.20;99.90
20858;DHT22;10589;53.636;10.012;2022-08-03T08:31:09;27.40;99.90
20858;DHT22;10589;53.636;10.012;2022-08-03T08:33:35;27.60;99.90
20858;DHT22;10589;53.636;10.012;2022-08-03T08:36:00;27.80;99.90
20858;DHT22;10589;53.636;10.012;2022-08-03T08:38:26;27.80;99.90
20858;DHT22;10589;53.636;10.012;2022-08-03T08:40:54;27.90;99.90
20858;DHT22;10589;53.636;10.012;2022-08-03T08:43:20;28.00;99.90
20858;DHT22;10589;53.636;10.012;2022-08-03T08:45:48;28.20;99.90
20858;DHT22;10589;53.636;10.012;2022-08-03T08:48:19;28.20;99.90
20858;DHT22;10589;53.636;10.012;2022-08-03T08:50:47;28.40;99.90
20858;DHT22;10589;53.636;10.012;2022-08-03T08:53:13;28.40;99.90
20858;DHT22;10589;53.636;10.012;2022-08-03T08:55:40;28.50;99.90
20858;DHT22;10589;53.636;10.012;2022-08-03T08:58:08;28.60;99.90
20858;DHT22;10589;53.636;10.012;2022-08-03T09:00:35;28.60;99.90
20858;DHT22;10589;53.636;10.012;2022-08-03T09:03:01;28.60;99.90
20858;DHT22;10589;53.636;10.012;2022-08-03T09:05:27;28.60;99.90
20858;DHT22;10589;53.636;10.012;2022-08-03T09:07:56;28.40;99.90
20858;DHT22;10589;53.636;10.012;2022-08-03T09:10:22;28.30;99.90
20858;DHT22;10589;53.636;10.012;2022-08-03T09:12:51;28.30;99.90
20858;DHT22;10589;53.636;10.012;2022-08-03T09:15:28;28.40;99.90
20858;DHT22;10589;53.636;10.012;2022-08-03T09:18:00;28.30;99.90
20858;DHT22;10589;53.636;10.012;2022-08-03T09:20:28;28.30;99.90
20858;DHT22;10589;53.636;10.012;2022-08-03T09:22:58;28.40;99.90
20858;DHT22;10589;53.636;10.012;2022-08-03T09:28:16;28.50;99.90
20858;DHT22;10589;53.636;10.012;2022-08-03T09:30:43;28.60;99.90
20858;DHT22;10589;53.636;10.012;2022-08-03T09:33:11;28.70;99.90
20858;DHT22;10589;53.636;10.012;2022-08-03T09:38:08;28.70;99.90
20858;DHT22;10589;53.636;10.012;2022-08-03T09:40:34;29.00;99.90
20858;DHT22;10589;53.636;10.012;2022-08-03T09:43:03;29.10;99.90
20858;DHT22;10589;53.636;10.012;2022-08-03T09:45:29;29.10;99.90
20858;DHT22;10589;53.636;10.012;2022-08-03T09:47:54;29.40;99.90
20858;DHT22;10589;53.636;10.012;2022-08-03T09:50:21;29.40;99.90
20858;DHT22;10589;53.636;10.012;2022-08-03T09:52:47;29.50;99.90
20858;DHT22;10589;53.636;10.012;2022-08-03T09:55:16;29.60;99.90
20858;DHT22;10589;53.636;10.012;2022-08-03T09:57:43;29.80;99.90
20858;DHT22;10589;53.636;10.012;2022-08-03T10:00:11;29.90;99.90
20858;DHT22;10589;53.636;10.012;2022-08-03T10:02:38;30.10;99.90
20858;DHT22;10589;53.636;10.012;2022-08-03T10:05:05;30.10;99.90
20858;DHT22;10589;53.636;10.012;2022-08-03T10:07:47;30.10;99.90
20858;DHT22;10589;53.636;10.012;2022-08-03T10:10:14;30.10;99.90
20858;DHT22;10589;53.636;10.012;2022-08-03T10:12:41;30.10;99.90
20858;DHT22;10589;53.636;10.012;2022-08-03T10:15:08;29.80;99.90
20858;DHT22;10589;53.636;10.012;2022-08-03T10:17:35;29.70;99.90
20858;DHT22;10589;53.636;10.012;2022-08-03T10:20:01;29.70;99.90
20858;DHT22;10589;53.636;10.012;2022-08-03T10:22:32;29.60;99.90
20858;DHT22;10589;53.636;10.012;2022-08-03T10:25:05;29.70;99.90
20858;DHT22;10589;53.636;10.012;2022-08-03T10:27:37;29.80;99.90
20858;DHT22;10589;53.636;10.012;2022-08-03T10:30:06;30.10;99.90
20858;DHT22;10589;53.636;10.012;2022-08-03T10:33:10;30.30;99.90
20858;DHT22;10589;53.636;10.012;2022-08-03T10:35:38;30.40;99.90
20858;DHT22;10589;53.636;10.012;2022-08-03T10:38:09;30.50;99.90
20858;DHT22;10589;53.636;10.012;2022-08-03T10:40:37;30.60;99.90
20858;DHT22;10589;53.636;10.012;2022-08-03T10:43:10;30.80;99.90
20858;DHT22;10589;53.636;10.012;2022-08-03T10:45:40;30.70;99.90
20858;DHT22;10589;53.636;10.012;2022-08-03T10:48:07;30.40;99.90
20858;DHT22;10589;53.636;10.012;2022-08-03T10:50:33;30.10;99.90
20858;DHT22;10589;53.636;10.012;2022-08-03T10:53:01;30.00;99.90
20858;DHT22;10589;53.636;10.012;2022-08-03T10:55:37;30.00;99.90
20858;DHT22;10589;53.636;10.012;2022-08-03T11:01:10;29.80;99.90
20858;DHT22;10589;53.636;10.012;2022-08-03T11:06:20;29.70;99.90
20858;DHT22;10589;53.636;10.012;2022-08-03T11:08:47;29.80;99.90
20858;DHT22;10589;53.636;10.012;2022-08-03T11:14:08;30.00;99.90
20858;DHT22;10589;53.636;10.012;2022-08-03T11:16:37;30.40;99.90
20858;DHT22;10589;53.636;10.012;2022-08-03T11:19:06;30.50;99.90
20858;DHT22;10589;53.636;10.012;2022-08-03T11:27:22;31.00;99.90
20858;DHT22;10589;53.636;10.012;2022-08-03T11:42:57;31.60;99.90
20858;DHT22;10589;53.636;10.012;2022-08-03T11:45:23;31.70;99.90
20858;DHT22;10589;53.636;10.012;2022-08-03T11:47:52;31.70;99.90
20858;DHT22;10589;53.636;10.012;2022-08-03T11:50:19;31.90;99.90
20858;DHT22;10589;53.636;10.012;2022-08-03T11:52:46;32.00;99.90
20858;DHT22;10589;53.636;10.012;2022-08-03T11:55:14;32.00;99.90
20858;DHT22;10589;53.636;10.012;2022-08-03T11:57:41;32.10;99.90
20858;DHT22;10589;53.636;10.012;2022-08-03T12:00:24;32.20;99.90
20858;DHT22;10589;53.636;10.012;2022-08-03T12:05:35;32.50;99.30
20858;DHT22;10589;53.636;10.012;2022-08-03T12:08:01;32.70;99.20
20858;DHT22;10589;53.636;10.012;2022-08-03T12:10:27;32.60;99.50
20858;DHT22;10589;53.636;10.012;2022-08-03T12:12:57;32.40;97.70
20858;DHT22;10589;53.636;10.012;2022-08-03T12:15:28;32.30;97.70
20858;DHT22;10589;53.636;10.012;2022-08-03T12:17:56;32.40;98.10
20858;DHT22;10589;53.636;10.012;2022-08-03T12:20:27;32.70;97.90
20858;DHT22;10589;53.636;10.012;2022-08-03T12:22:53;32.70;96.70
20858;DHT22;10589;53.636;10.012;2022-08-03T12:25:23;32.90;96.70
20858;DHT22;10589;53.636;10.012;2022-08-03T12:27:51;33.00;95.80
20858;DHT22;10589;53.636;10.012;2022-08-03T12:30:17;33.00;97.80
20858;DHT22;10589;53.636;10.012;2022-08-03T12:32:43;33.00;95.90
20858;DHT22;10589;53.636;10.012;2022-08-03T12:35:09;33.00;96.10
20858;DHT22;10589;53.636;10.012;2022-08-03T12:37:35;33.30;96.50
20858;DHT22;10589;53.636;10.012;2022-08-03T12:40:02;33.40;95.60
20858;DHT22;10589;53.636;10.012;2022-08-03T12:44:57;33.70;96.10
20858;DHT22;10589;53.636;10.012;2022-08-03T12:47:22;34.00;94.20
20858;DHT22;10589;53.636;10.012;2022-08-03T12:49:52;34.90;93.40
20858;DHT22;10589;53.636;10.012;2022-08-03T12:52:19;36.10;92.10
20858;DHT22;10589;53.636;10.012;2022-08-03T12:54:59;37.20;91.20
20858;DHT22;10589;53.636;10.012;2022-08-03T12:57:38;37.70;89.70
20858;DHT22;10589;53.636;10.012;2022-08-03T13:00:15;38.80;87.40
20858;DHT22;10589;53.636;10.012;2022-08-03T13:02:41;39.40;84.90
20858;DHT22;10589;53.636;10.012;2022-08-03T13:05:12;39.70;82.40
20858;DHT22;10589;53.636;10.012;2022-08-03T13:07:44;39.90;79.80
20858;DHT22;10589;53.636;10.012;2022-08-03T13:10:11;40.70;79.80
20858;DHT22;10589;53.636;10.012;2022-08-03T13:12:50;41.00;76.20
20858;DHT22;10589;53.636;10.012;2022-08-03T13:15:17;41.30;74.60
20858;DHT22;10589;53.636;10.012;2022-08-03T13:17:43;40.90;75.10
20858;DHT22;10589;53.636;10.012;2022-08-03T13:20:09;40.90;73.50
20858;DHT22;10589;53.636;10.012;2022-08-03T13:22:35;41.00;73.20
20858;DHT22;10589;53.636;10.012;2022-08-03T13:25:01;40.80;74.00
20858;DHT22;10589;53.636;10.012;2022-08-03T13:27:28;41.10;72.40
20858;DHT22;10589;53.636;10.012;2022-08-03T13:29:54;41.10;72.00
20858;DHT22;10589;53.636;10.012;2022-08-03T13:32:21;42.10;70.00
20858;DHT22;10589;53.636;10.012;2022-08-03T13:34:47;42.60;68.60
20858;DHT22;10589;53.636;10.012;2022-08-03T13:37:13;43.00;67.90
20858;DHT22;10589;53.636;10.012;2022-08-03T13:39:39;43.70;66.60
20858;DHT22;10589;53.636;10.012;2022-08-03T13:42:05;43.50;65.60
20858;DHT22;10589;53.636;10.012;2022-08-03T13:44:31;43.40;65.30
20858;DHT22;10589;53.636;10.012;2022-08-03T13:46:57;43.20;64.60
20858;DHT22;10589;53.636;10.012;2022-08-03T13:49:25;43.20;64.50
20858;DHT22;10589;53.636;10.012;2022-08-03T13:51:51;43.30;64.10
20858;DHT22;10589;53.636;10.012;2022-08-03T13:54:17;43.50;64.00
20858;DHT22;10589;53.636;10.012;2022-08-03T13:56:43;43.70;63.80
20858;DHT22;10589;53.636;10.012;2022-08-03T13:59:14;44.30;62.80
20858;DHT22;10589;53.636;10.012;2022-08-03T14:01:40;44.90;61.90
20858;DHT22;10589;53.636;10.012;2022-08-03T14:04:05;44.30;62.90
20858;DHT22;10589;53.636;10.012;2022-08-03T14:06:31;43.90;63.00
20858;DHT22;10589;53.636;10.012;2022-08-03T14:08:57;43.50;62.60
20858;DHT22;10589;53.636;10.012;2022-08-03T14:11:22;43.50;64.40
20858;DHT22;10589;53.636;10.012;2022-08-03T14:13:48;43.30;63.60
20858;DHT22;10589;53.636;10.012;2022-08-03T14:16:13;43.60;62.10
20858;DHT22;10589;53.636;10.012;2022-08-03T14:18:40;44.40;62.20
20858;DHT22;10589;53.636;10.012;2022-08-03T14:21:06;44.80;62.20
20858;DHT22;10589;53.636;10.012;2022-08-03T14:23:35;45.00;60.80
20858;DHT22;10589;53.636;10.012;2022-08-03T14:26:05;46.10;58.70
20858;DHT22;10589;53.636;10.012;2022-08-03T14:28:31;46.20;58.20
20858;DHT22;10589;53.636;10.012;2022-08-03T14:30:57;45.60;58.80
20858;DHT22;10589;53.636;10.012;2022-08-03T14:33:23;45.80;58.60
20858;DHT22;10589;53.636;10.012;2022-08-03T14:35:50;45.90;58.20
20858;DHT22;10589;53.636;10.012;2022-08-03T14:38:16;45.30;58.70
20858;DHT22;10589;53.636;10.012;2022-08-03T14:40:42;44.80;60.10
20858;DHT22;10589;53.636;10.012;2022-08-03T14:43:08;44.30;58.80
20858;DHT22;10589;53.636;10.012;2022-08-03T14:45:34;43.20;60.90
20858;DHT22;10589;53.636;10.012;2022-08-03T14:47:59;41.70;61.80
20858;DHT22;10589;53.636;10.012;2022-08-03T14:50:26;40.90;62.90
20858;DHT22;10589;53.636;10.012;2022-08-03T14:52:55;40.60;63.30
20858;DHT22;10589;53.636;10.012;2022-08-03T14:55:21;40.40;63.30
20858;DHT22;10589;53.636;10.012;2022-08-03T14:57:46;40.00;63.80
20858;DHT22;10589;53.636;10.012;2022-08-03T15:00:12;39.80;63.60
20858;DHT22;10589;53.636;10.012;2022-08-03T15:02:38;40.10;64.00
20858;DHT22;10589;53.636;10.012;2022-08-03T15:05:04;39.80;64.80
20858;DHT22;10589;53.636;10.012;2022-08-03T15:07:30;40.10;65.20
20858;DHT22;10589;53.636;10.012;2022-08-03T15:09:55;41.00;63.20
20858;DHT22;10589;53.636;10.012;2022-08-03T15:12:21;41.10;63.10
20858;DHT22;10589;53.636;10.012;2022-08-03T15:14:47;40.70;63.30
20858;DHT22;10589;53.636;10.012;2022-08-03T15:17:12;40.40;63.50
20858;DHT22;10589;53.636;10.012;2022-08-03T15:19:38;40.40;64.40
20858;DHT22;10589;53.636;10.012;2022-08-03T15:22:04;40.40;63.40
20858;DHT22;10589;53.636;10.012;2022-08-03T15:24:30;40.10;63.20
20858;DHT22;10589;53.636;10.012;2022-08-03T15:26:56;40.00;63.70
20858;DHT22;10589;53.636;10.012;2022-08-03T15:29:21;39.80;64.30
20858;DHT22;10589;53.636;10.012;2022-08-03T15:31:47;39.10;65.80
20858;DHT22;10589;53.636;10.012;2022-08-03T15:34:12;38.30;66.60
20858;DHT22;10589;53.636;10.012;2022-08-03T15:36:38;37.70;67.70
20858;DHT22;10589;53.636;10.012;2022-08-03T15:39:04;37.30;70.50
20858;DHT22;10589;53.636;10.012;2022-08-03T15:41:30;36.90;68.90
20858;DHT22;10589;53.636;10.012;2022-08-03T15:43:55;36.30;69.50
20858;DHT22;10589;53.636;10.012;2022-08-03T15:46:21;36.40;70.20
20858;DHT22;10589;53.636;10.012;2022-08-03T15:48:47;36.00;71.30
20858;DHT22;10589;53.636;10.012;2022-08-03T15:51:13;35.50;71.60
20858;DHT22;10589;53.636;10.012;2022-08-03T15:53:38;35.50;71.40
20858;DHT22;10589;53.636;10.012;2022-08-03T15:56:04;36.00;73.00
20858;DHT22;10589;53.636;10.012;2022-08-03T15:58:32;36.70;72.20
20858;DHT22;10589;53.636;10.012;2022-08-03T16:00:59;37.70;68.20
20858;DHT22;10589;53.636;10.012;2022-08-03T16:03:26;38.40;66.80
20858;DHT22;10589;53.636;10.012;2022-08-03T16:05:53;39.10;65.30
20858;DHT22;10589;53.636;10.012;2022-08-03T16:08:19;39.20;65.10
20858;DHT22;10589;53.636;10.012;2022-08-03T16:10:46;39.70;64.50
20858;DHT22;10589;53.636;10.012;2022-08-03T16:13:12;39.90;64.40
20858;DHT22;10589;53.636;10.012;2022-08-03T16:15:38;39.60;65.90
20858;DHT22;10589;53.636;10.012;2022-08-03T16:18:05;39.90;64.90
20858;DHT22;10589;53.636;10.012;2022-08-03T16:20:31;39.80;64.20
20858;DHT22;10589;53.636;10.012;2022-08-03T16:22:56;39.80;65.50
20858;DHT22;10589;53.636;10.012;2022-08-03T16:25:22;40.20;62.50
20858;DHT22;10589;53.636;10.012;2022-08-03T16:27:47;40.20;62.40
20858;DHT22;10589;53.636;10.012;2022-08-03T16:30:14;39.90;62.50
20858;DHT22;10589;53.636;10.012;2022-08-03T16:32:41;39.40;64.30
20858;DHT22;10589;53.636;10.012;2022-08-03T16:35:08;39.50;63.60
20858;DHT22;10589;53.636;10.012;2022-08-03T16:37:34;39.30;64.10
20858;DHT22;10589;53.636;10.012;2022-08-03T16:40:00;39.20;64.70
20858;DHT22;10589;53.636;10.012;2022-08-03T16:42:25;38.90;66.30
20858;DHT22;10589;53.636;10.012;2022-08-03T16:44:51;38.90;64.60
20858;DHT22;10589;53.636;10.012;2022-08-03T16:47:17;38.50;66.80
20858;DHT22;10589;53.636;10.012;2022-08-03T16:49:42;38.50;66.20
20858;DHT22;10589;53.636;10.012;2022-08-03T16:52:08;38.40;66.80
20858;DHT22;10589;53.636;10.012;2022-08-03T16:54:33;38.30;67.90
20858;DHT22;10589;53.636;10.012;2022-08-03T16:56:59;38.50;64.50
20858;DHT22;10589;53.636;10.012;2022-08-03T16:59:25;39.10;64.00
20858;DHT22;10589;53.636;10.012;2022-08-03T17:01:50;39.90;63.50
20858;DHT22;10589;53.636;10.012;2022-08-03T17:04:16;40.40;61.50
20858;DHT22;10589;53.636;10.012;2022-08-03T17:06:42;40.80;61.60
20858;DHT22;10589;53.636;10.012;2022-08-03T17:09:14;40.70;62.50
20858;DHT22;10589;53.636;10.012;2022-08-03T17:11:42;40.80;60.80
20858;DHT22;10589;53.636;10.012;2022-08-03T17:14:08;40.90;61.40
20858;DHT22;10589;53.636;10.012;2022-08-03T17:16:34;40.10;61.50
20858;DHT22;10589;53.636;10.012;2022-08-03T17:19:03;39.10;64.20
20858;DHT22;10589;53.636;10.012;2022-08-03T17:21:32;38.40;65.10
20858;DHT22;10589;53.636;10.012;2022-08-03T17:24:17;37.30;68.00
20858;DHT22;10589;53.636;10.012;2022-08-03T17:26:49;36.40;67.30
20858;DHT22;10589;53.636;10.012;2022-08-03T17:29:20;35.40;68.60
20858;DHT22;10589;53.636;10.012;2022-08-03T17:31:46;34.30;71.30
20858;DHT22;10589;53.636;10.012;2022-08-03T17:34:12;33.60;72.30
20858;DHT22;10589;53.636;10.012;2022-08-03T17:36:38;33.10;73.40
20858;DHT22;10589;53.636;10.012;2022-08-03T17:39:04;32.70;74.10
20858;DHT22;10589;53.636;10.012;2022-08-03T17:41:31;32.40;74.50
20858;DHT22;10589;53.636;10.012;2022-08-03T17:44:03;32.20;75.40
20858;DHT22;10589;53.636;10.012;2022-08-03T17:46:29;31.80;77.10
20858;DHT22;10589;53.636;10.012;2022-08-03T17:48:55;31.50;79.00
20858;DHT22;10589;53.636;10.012;2022-08-03T17:51:32;31.20;80.20
20858;DHT22;10589;53.636;10.012;2022-08-03T17:54:23;31.10;80.10
20858;DHT22;10589;53.636;10.012;2022-08-03T17:56:56;30.80;82.20
20858;DHT22;10589;53.636;10.012;2022-08-03T17:59:54;30.60;83.00
20858;DHT22;10589;53.636;10.012;2022-08-03T18:02:35;30.40;85.60
20858;DHT22;10589;53.636;10.012;2022-08-03T18:05:24;30.20;83.30
20858;DHT22;10589;53.636;10.012;2022-08-03T18:07:55;29.90;86.40
20858;DHT22;10589;53.636;10.012;2022-08-03T18:10:23;29.70;87.00
20858;DHT22;10589;53.636;10.012;2022-08-03T18:12:56;29.50;89.20
20858;DHT22;10589;53.636;10.012;2022-08-03T18:15:39;29.40;87.10
20858;DHT22;10589;53.636;10.012;2022-08-03T18:18:07;29.20;89.60
20858;DHT22;10589;53.636;10.012;2022-08-03T18:20:34;29.00;90.60
20858;DHT22;10589;53.636;10.012;2022-08-03T18:23:02;28.90;91.40
20858;DHT22;10589;53.636;10.012;2022-08-03T18:25:28;28.80;91.80
20858;DHT22;10589;53.636;10.012;2022-08-03T18:27:55;28.60;91.90
20858;DHT22;10589;53.636;10.012;2022-08-03T18:30:21;28.50;92.20
20858;DHT22;10589;53.636;10.012;2022-08-03T18:32:47;28.50;91.50
20858;DHT22;10589;53.636;10.012;2022-08-03T18:35:14;28.40;92.20
20858;DHT22;10589;53.636;10.012;2022-08-03T18:37:43;28.30;92.50
20858;DHT22;10589;53.636;10.012;2022-08-03T18:40:10;28.20;93.10
20858;DHT22;10589;53.636;10.012;2022-08-03T18:42:36;28.10;93.90
20858;DHT22;10589;53.636;10.012;2022-08-03T18:45:03;28.00;94.70
20858;DHT22;10589;53.636;10.012;2022-08-03T18:56:23;27.30;98.10
20858;DHT22;10589;53.636;10.012;2022-08-03T18:59:14;27.10;98.40
20858;DHT22;10589;53.636;10.012;2022-08-03T19:01:49;27.00;99.40
20858;DHT22;10589;53.636;10.012;2022-08-03T19:06:47;26.70;99.90
20858;DHT22;10589;53.636;10.012;2022-08-03T19:12:15;26.40;99.90
20858;DHT22;10589;53.636;10.012;2022-08-03T19:14:45;26.20;99.90
20858;DHT22;10589;53.636;10.012;2022-08-03T19:17:13;26.00;99.90
20858;DHT22;10589;53.636;10.012;2022-08-03T19:19:43;25.90;99.90
20858;DHT22;10589;53.636;10.012;2022-08-03T19:22:11;25.80;99.90
20858;DHT22;10589;53.636;10.012;2022-08-03T19:24:37;25.60;99.90
20858;DHT22;10589;53.636;10.012;2022-08-03T19:27:06;25.50;99.90
20858;DHT22;10589;53.636;10.012;2022-08-03T19:29:34;25.40;99.90
20858;DHT22;10589;53.636;10.012;2022-08-03T19:32:00;25.30;99.90
20858;DHT22;10589;53.636;10.012;2022-08-03T19:34:28;25.10;99.90
20858;DHT22;10589;53.636;10.012;2022-08-03T19:36:55;25.10;99.90
20858;DHT22;10589;53.636;10.012;2022-08-03T19:39:21;25.00;99.90
20858;DHT22;10589;53.636;10.012;2022-08-03T19:41:47;24.90;99.90
20858;DHT22;10589;53.636;10.012;2022-08-03T19:44:20;24.80;99.90
20858;DHT22;10589;53.636;10.012;2022-08-03T19:47:13;24.80;99.90
20858;DHT22;10589;53.636;10.012;2022-08-03T19:49:40;24.80;99.90
20858;DHT22;10589;53.636;10.012;2022-08-03T19:52:09;24.70;99.90
20858;DHT22;10589;53.636;10.012;2022-08-03T19:54:43;24.60;99.90
20858;DHT22;10589;53.636;10.012;2022-08-03T19:57:11;24.60;99.90